createdAt,value
2019-01-12T00:04:19.214Z,91.80
2019-01-12T00:09:49.685Z,91.90
2019-01-12T00:15:19.056Z,92.00
2019-01-12T00:20:48.383Z,92.10
2019-01-12T00:26:17.778Z,92.40
2019-01-12T00:31:47.106Z,92.00
2019-01-12T00:37:16.442Z,92.00
2019-01-12T00:42:45.886Z,91.90
2019-01-12T00:48:15.289Z,91.90
2019-01-12T00:53:44.636Z,91.90
2019-01-12T00:59:14.052Z,91.90
2019-01-12T01:04:43.497Z,91.80
2019-01-12T01:10:17.359Z,91.80
2019-01-12T01:15:47.115Z,91.90
2019-01-12T01:21:16.509Z,91.90
2019-01-12T01:26:46.249Z,92.00
2019-01-12T01:32:16.021Z,91.90
2019-01-12T01:37:46.019Z,92.20
2019-01-12T01:43:15.838Z,91.90
2019-01-12T01:48:47.730Z,91.90
2019-01-12T01:54:17.418Z,91.90
2019-01-12T01:59:47.179Z,92.00
2019-01-12T02:05:17.147Z,92.00
2019-01-12T02:10:46.970Z,91.90
2019-01-12T02:16:17.310Z,91.80
2019-01-12T02:21:46.692Z,91.70
2019-01-12T02:27:16.125Z,91.60
2019-01-12T02:32:45.552Z,91.50
2019-01-12T02:38:14.999Z,91.40
2019-01-12T02:43:44.368Z,91.30
2019-01-12T02:49:13.793Z,91.20
2019-01-12T02:54:43.212Z,91.10
2019-01-12T03:00:16.645Z,91.10
2019-01-12T03:05:46.170Z,91.00
2019-01-12T03:11:15.513Z,90.90
2019-01-12T03:16:44.915Z,90.90
2019-01-12T03:22:14.498Z,90.90
2019-01-12T03:27:44.068Z,90.90
2019-01-12T03:33:13.458Z,90.80
2019-01-12T03:38:43.015Z,90.80
2019-01-12T03:44:12.585Z,90.80
2019-01-12T03:49:42.089Z,90.70
2019-01-12T03:55:12.102Z,90.70
2019-01-12T04:00:42.714Z,90.70
2019-01-12T04:06:12.255Z,90.60
2019-01-12T04:11:41.725Z,90.60
2019-01-12T04:17:11.143Z,90.60
2019-01-12T04:22:40.789Z,90.60
2019-01-12T04:28:11.202Z,90.80
2019-01-12T04:33:40.558Z,90.50
2019-01-12T04:39:10.222Z,90.50
2019-01-12T04:44:39.904Z,90.40
2019-01-12T04:50:15.065Z,90.40
2019-01-12T04:55:44.517Z,90.40
2019-01-12T05:01:13.923Z,90.50
2019-01-12T05:06:44.273Z,90.50
2019-01-12T05:12:13.600Z,90.40
2019-01-12T05:17:43.238Z,90.30
2019-01-12T05:23:12.717Z,90.40
2019-01-12T05:28:42.134Z,90.50
2019-01-12T05:34:11.682Z,90.60
2019-01-12T05:39:43.145Z,90.70
2019-01-12T05:45:13.782Z,90.80
2019-01-12T05:50:43.148Z,90.90
2019-01-12T05:56:12.455Z,90.90
2019-01-12T06:01:41.960Z,91.00
2019-01-12T06:07:11.488Z,91.10
2019-01-12T06:12:40.993Z,91.30
2019-01-12T06:18:10.522Z,91.40
2019-01-12T06:23:40.974Z,91.50
2019-01-12T06:29:11.439Z,91.60
2019-01-12T06:34:40.961Z,91.70
2019-01-12T06:40:16.310Z,91.80
2019-01-12T06:45:45.679Z,91.80
2019-01-12T06:51:17.194Z,91.70
2019-01-12T06:56:46.493Z,91.70
2019-01-12T07:02:15.823Z,91.70
2019-01-12T07:07:45.284Z,91.70
2019-01-12T07:13:14.602Z,91.70
2019-01-12T07:18:44.016Z,91.70
2019-01-12T07:24:13.413Z,91.70
2019-01-12T07:29:42.802Z,91.70
2019-01-12T07:35:12.234Z,91.70
2019-01-12T07:40:41.874Z,91.80
2019-01-12T07:46:11.402Z,91.80
2019-01-12T07:51:40.857Z,91.80
2019-01-12T07:57:10.334Z,91.70
2019-01-12T08:02:39.873Z,91.60
2019-01-12T08:08:11.286Z,91.60
2019-01-12T08:13:40.827Z,91.60
2019-01-12T08:19:10.483Z,91.50
2019-01-12T08:24:41.107Z,91.50
2019-01-12T08:30:15.174Z,91.50
2019-01-12T08:35:44.521Z,91.60
2019-01-12T08:41:14.228Z,91.50
2019-01-12T08:46:43.895Z,91.50
2019-01-12T08:52:15.938Z,91.50
2019-01-12T08:57:45.483Z,91.40
2019-01-12T09:03:15.024Z,91.40
2019-01-12T09:08:44.434Z,91.30
2019-01-12T09:14:13.830Z,91.20
2019-01-12T09:19:44.296Z,91.20
2019-01-12T09:25:15.775Z,91.10
2019-01-12T09:30:48.620Z,91.10
2019-01-12T09:36:18.201Z,91.20
2019-01-12T09:41:48.667Z,91.10
2019-01-12T09:47:18.173Z,91.10
2019-01-12T09:52:47.757Z,91.10
2019-01-12T09:58:22.048Z,91.00
2019-01-12T10:03:54.840Z,90.90
2019-01-12T10:09:24.483Z,90.80
2019-01-12T10:14:54.003Z,90.80
2019-01-12T10:20:27.473Z,90.60
2019-01-12T10:25:56.800Z,90.60
2019-01-12T10:31:26.243Z,90.50
2019-01-12T10:36:55.894Z,90.50
2019-01-12T10:42:25.595Z,90.40
2019-01-12T10:47:55.232Z,90.30
2019-01-12T10:53:24.787Z,90.20
2019-01-12T10:58:54.342Z,90.20
2019-01-12T11:04:24.765Z,90.20
2019-01-12T11:09:54.188Z,90.20
2019-01-12T11:15:23.921Z,90.20
2019-01-12T11:20:53.344Z,90.20
2019-01-12T11:26:22.758Z,90.10
2019-01-12T11:31:52.241Z,90.00
2019-01-12T11:37:21.717Z,89.50
2019-01-12T11:42:52.209Z,89.10
2019-01-12T11:48:21.594Z,88.70
2019-01-12T11:53:50.989Z,88.30
2019-01-12T11:59:20.377Z,88.30
2019-01-12T12:04:49.890Z,87.90
2019-01-12T12:10:20.192Z,87.30
2019-01-12T12:15:51.165Z,87.30
2019-01-12T12:21:20.693Z,87.50
2019-01-12T12:26:50.064Z,86.40
2019-01-12T12:32:20.971Z,85.60
2019-01-12T12:37:52.765Z,84.70
2019-01-12T12:43:22.136Z,84.90
2019-01-12T12:48:51.673Z,83.90
2019-01-12T12:54:21.147Z,83.50
2019-01-12T12:59:50.591Z,83.40
2019-01-12T13:05:20.290Z,84.20
2019-01-12T13:10:49.742Z,83.20
2019-01-12T13:16:19.325Z,83.40
2019-01-12T13:21:48.840Z,83.10
2019-01-12T13:27:18.293Z,83.00
2019-01-12T13:32:48.105Z,83.80
2019-01-12T13:38:17.672Z,83.10
2019-01-12T13:43:47.188Z,83.10
2019-01-12T13:49:16.643Z,82.80
2019-01-12T13:54:46.123Z,82.60
2019-01-12T14:00:23.340Z,82.80
2019-01-12T14:05:52.783Z,83.00
2019-01-12T14:11:22.322Z,83.40
2019-01-12T14:16:51.723Z,83.60
2019-01-12T14:22:21.296Z,83.50
2019-01-12T14:27:54.908Z,83.70
2019-01-12T14:33:22.322Z,83.70
2019-01-12T14:38:51.766Z,83.80
2019-01-12T14:44:22.204Z,83.90
2019-01-12T14:49:51.534Z,83.60
2019-01-12T14:55:23.132Z,83.70
2019-01-12T15:00:55.722Z,83.80
2019-01-12T15:06:25.123Z,83.60
2019-01-12T15:11:56.397Z,83.60
2019-01-12T15:17:25.773Z,83.70
2019-01-12T15:22:55.418Z,83.80
2019-01-12T15:28:32.833Z,83.90
2019-01-12T15:34:02.350Z,84.00
2019-01-12T15:39:31.833Z,84.30
2019-01-12T15:45:01.228Z,84.40
2019-01-12T15:50:30.731Z,84.70
2019-01-12T15:56:00.604Z,84.80
2019-01-12T16:01:30.177Z,85.00
2019-01-12T16:06:59.748Z,85.00
2019-01-12T16:12:29.238Z,85.30
2019-01-12T16:17:58.944Z,85.20
2019-01-12T16:23:31.611Z,85.20
2019-01-12T16:29:18.929Z,85.20
2019-01-12T16:34:55.111Z,85.20
2019-01-12T16:46:20.483Z,84.70
2019-01-12T16:51:51.193Z,84.30
2019-01-12T16:57:20.681Z,84.40
2019-01-12T17:02:59.066Z,84.20
2019-01-12T17:08:28.536Z,83.60
2019-01-12T17:13:58.181Z,83.30
2019-01-12T17:19:27.601Z,83.00
2019-01-12T17:25:05.902Z,82.80
2019-01-12T17:30:35.623Z,82.40
2019-01-12T17:36:05.298Z,82.10
2019-01-12T17:41:34.769Z,82.00
2019-01-12T17:47:04.241Z,81.60
2019-01-12T17:52:33.961Z,81.20
2019-01-12T17:58:03.495Z,80.90
2019-01-12T18:03:33.063Z,80.00
2019-01-12T18:09:05.020Z,79.70
2019-01-12T18:14:36.148Z,79.10
2019-01-12T18:20:11.221Z,79.00
2019-01-12T18:25:40.826Z,78.80
2019-01-12T18:31:10.395Z,77.90
2019-01-12T18:36:39.939Z,78.10
2019-01-12T18:42:09.718Z,78.50
2019-01-12T18:47:39.115Z,79.30
2019-01-12T18:53:08.763Z,80.20
2019-01-12T18:58:38.506Z,81.80
2019-01-12T19:04:08.341Z,82.60
2019-01-12T19:09:38.401Z,84.10
2019-01-12T19:15:21.397Z,85.30
2019-01-12T19:20:50.907Z,86.20
2019-01-12T19:26:20.350Z,87.20
2019-01-12T19:31:49.716Z,88.50
2019-01-12T19:37:19.049Z,88.90
2019-01-12T19:42:48.426Z,89.80
2019-01-12T19:48:17.876Z,90.20
2019-01-12T19:53:47.344Z,90.50
2019-01-12T19:59:18.681Z,90.70
2019-01-12T20:04:48.129Z,90.90
2019-01-12T20:10:19.400Z,91.20
2019-01-12T20:15:48.896Z,91.50
2019-01-12T20:21:18.417Z,91.80
2019-01-12T20:26:48.091Z,92.00
2019-01-12T20:32:33.780Z,92.20
2019-01-12T20:38:22.093Z,92.40
2019-01-12T20:44:09.477Z,92.80
2019-01-12T20:49:44.094Z,92.80
2019-01-12T20:55:18.160Z,92.80
2019-01-12T21:01:31.631Z,93.00
2019-01-12T21:07:20.462Z,93.10
2019-01-12T21:13:26.139Z,93.20
2019-01-12T21:18:55.601Z,93.40
2019-01-12T21:24:25.006Z,93.60
2019-01-12T21:29:56.342Z,93.60
2019-01-12T21:35:26.781Z,93.70
2019-01-12T21:40:56.451Z,93.70
2019-01-12T21:46:25.822Z,93.70
2019-01-12T21:51:55.255Z,93.70
2019-01-12T21:57:24.700Z,93.80
2019-01-12T22:02:55.768Z,93.70
2019-01-12T22:08:25.228Z,93.80
2019-01-12T22:13:54.651Z,93.80
2019-01-12T22:19:24.073Z,93.90
2019-01-12T22:24:53.531Z,94.00
2019-01-12T22:30:22.858Z,94.10
2019-01-12T22:35:52.328Z,94.10
2019-01-12T22:41:21.860Z,94.10
2019-01-12T22:46:51.463Z,94.10
2019-01-12T22:52:21.951Z,94.20
2019-01-12T22:57:52.499Z,94.30
2019-01-12T23:03:22.389Z,94.30
2019-01-12T23:08:51.836Z,94.70
2019-01-12T23:14:21.345Z,94.50
2019-01-12T23:19:53.335Z,94.50
2019-01-12T23:25:22.833Z,94.60
2019-01-12T23:30:52.235Z,94.60
2019-01-12T23:36:21.657Z,94.60
2019-01-12T23:41:51.105Z,94.50
2019-01-12T23:47:20.454Z,94.60
2019-01-12T23:52:49.941Z,94.60
2019-01-12T23:58:19.617Z,94.50
